Time;durP1;ratioP1;P1;durP2;ratioP2;P2;SDS_P1;SDS_P2;PMS_P1;PMS_P2;Temp;Humidity;BMP_temperature;BMP_pressure;BME280_temperature;BME280_humidity;BME280_pressure;Samples;Min_cycle;Max_cycle;Signal;HPM_P1;HPM_P2
2022/01/13 00:04:39;;;;;;;8.88;4.93;;;;;;;3.31;69.74;103218.69;4917376;29;20119;-92
2022/01/13 00:10:27;;;;;;;8.63;5.07;;;;;;;3.26;69.04;103237.88;4907486;29;20047;-93
2022/01/13 00:22:29;;;;;;;8.65;5.15;;;;;;;3.18;69.21;103208.50;4906432;29;20065;-92
2022/01/13 00:28:20;;;;;;;9.63;5.07;;;;;;;3.13;69.38;103227.66;4899640;29;20501;-91
2022/01/13 00:34:08;;;;;;;10.85;4.80;;;;;;;3.34;69.49;103252.63;4914262;29;20039;-92
2022/01/13 00:39:55;;;;;;;8.55;4.68;;;;;;;3.26;68.87;103269.75;4941815;29;20051;-92
2022/01/13 00:45:43;;;;;;;11.02;4.95;;;;;;;3.13;68.97;103239.66;4924291;29;20064;-92
2022/01/13 00:51:30;;;;;;;11.70;5.38;;;;;;;3.23;68.51;103250.38;4912567;29;20050;-91
2022/01/13 00:57:18;;;;;;;12.02;5.22;;;;;;;3.13;69.34;103249.97;4917201;29;20295;-92
2022/01/13 01:07:14;;;;;;;10.50;4.28;;;;;;;2.99;68.84;103225.97;4936480;29;19966;-92
2022/01/13 01:13:10;;;;;;;11.13;5.13;;;;;;;3.00;68.92;103207.16;4936245;29;20056;-90
2022/01/13 01:19:04;;;;;;;8.88;4.70;;;;;;;3.10;69.48;103268.59;4917315;29;20172;-93
2022/01/13 01:25:04;;;;;;;8.60;4.60;;;;;;;3.03;69.16;103273.75;4916878;29;20084;-91
2022/01/13 01:30:54;;;;;;;8.88;4.90;;;;;;;3.02;68.96;103246.97;4922005;29;20054;-90
2022/01/13 01:36:42;;;;;;;8.35;4.72;;;;;;;3.38;68.43;103278.09;4935988;29;20150;-93
2022/01/13 01:42:30;;;;;;;9.27;4.70;;;;;;;3.00;68.39;103201.97;4935077;29;20105;-92
2022/01/13 01:48:20;;;;;;;9.00;4.60;;;;;;;2.92;69.05;103238.84;4935453;29;20404;-92
2022/01/13 01:54:07;;;;;;;8.93;4.80;;;;;;;3.19;68.42;103243.91;4916687;29;20099;-91
2022/01/13 01:59:55;;;;;;;8.52;4.53;;;;;;;3.10;69.19;103284.09;4932248;29;20508;-91
2022/01/13 02:09:53;;;;;;;8.25;4.53;;;;;;;2.90;68.43;103203.25;4902944;29;20098;-90
2022/01/13 02:15:59;;;;;;;6.88;4.40;;;;;;;3.22;68.37;103258.88;4915146;29;20051;-89
2022/01/13 02:21:46;;;;;;;5.78;3.88;;;;;;;2.72;69.08;103215.72;4906853;29;20093;-91
2022/01/13 02:27:34;;;;;;;8.40;4.50;;;;;;;2.80;68.85;103229.59;4900443;29;20040;-92
2022/01/13 02:33:21;;;;;;;6.78;4.05;;;;;;;3.10;68.70;103270.25;4918979;29;20292;-92
2022/01/13 02:39:08;;;;;;;5.70;3.60;;;;;;;3.13;68.26;103271.53;4915250;29;20095;-93
2022/01/13 02:45:03;;;;;;;6.78;4.00;;;;;;;2.82;69.07;103233.28;4919228;29;20319;-90
2022/01/13 02:50:54;;;;;;;6.72;3.58;;;;;;;3.07;67.95;103239.84;4919164;29;20418;-93
2022/01/13 02:56:43;;;;;;;7.55;4.05;;;;;;;3.11;68.45;103285.00;4905821;29;20042;-92
2022/01/13 03:02:31;;;;;;;7.38;3.60;;;;;;;3.28;68.13;103281.94;4909186;29;20546;-92
2022/01/13 03:13:00;;;;;;;6.35;3.53;;;;;;;2.70;68.54;103234.31;4927627;29;20111;-91
2022/01/13 03:18:47;;;;;;;6.22;3.63;;;;;;;3.01;68.51;103267.47;4918678;29;20095;-89
2022/01/13 03:24:35;;;;;;;7.10;3.92;;;;;;;3.10;68.38;103263.44;4933794;29;20861;-89
2022/01/13 03:30:22;;;;;;;7.93;3.95;;;;;;;3.39;67.86;103290.28;4936948;29;20282;-89
2022/01/13 03:36:10;;;;;;;5.75;3.75;;;;;;;3.29;68.42;103294.13;4936949;29;20039;-89
2022/01/13 03:41:58;;;;;;;5.82;3.45;;;;;;;2.76;69.09;103255.72;4937114;29;20098;-89
2022/01/13 03:47:46;;;;;;;6.60;3.85;;;;;;;2.96;68.74;103282.34;4942685;29;20080;-89
2022/01/13 03:54:24;;;;;;;8.07;3.88;;;;;;;2.98;68.98;103298.03;4944131;29;20086;-89
2022/01/13 04:00:49;;;;;;;7.10;3.85;;;;;;;2.91;68.76;103319.59;4925693;29;20496;-92
2022/01/13 04:06:40;;;;;;;10.80;4.65;;;;;;;3.22;68.24;103314.03;4923910;29;20102;-91
2022/01/13 04:12:28;;;;;;;8.35;3.95;;;;;;;2.99;68.35;103277.59;4925046;29;20054;-89
2022/01/13 04:18:15;;;;;;;8.20;4.68;;;;;;;2.87;68.82;103281.22;4935762;29;20516;-91
2022/01/13 04:24:04;;;;;;;8.10;4.03;;;;;;;3.18;68.07;103305.72;4936905;29;20046;-90
2022/01/13 04:35:58;;;;;;;7.38;3.97;;;;;;;2.63;68.87;103297.13;4935704;29;20544;-90
2022/01/13 04:41:47;;;;;;;7.03;4.03;;;;;;;2.84;68.46;103315.31;4925893;29;20581;-91
2022/01/13 04:47:34;;;;;;;7.85;3.85;;;;;;;3.02;67.98;103328.66;4936634;29;20079;-90
2022/01/13 04:53:21;;;;;;;8.70;4.05;;;;;;;2.81;68.36;103342.38;4936197;29;20055;-92
2022/01/13 04:59:10;;;;;;;8.27;3.72;;;;;;;2.83;68.12;103340.91;4930618;29;20042;-88
2022/01/13 05:04:57;;;;;;;6.57;3.40;;;;;;;2.37;68.45;103270.59;4935650;29;20038;-88
2022/01/13 05:15:27;;;;;;;;;;;;;;;2.75;68.73;103339.97;4924911;29;20045;-88
2022/01/13 05:27:08;;;;;;;6.20;3.55;;;;;;;2.62;68.16;103328.81;4934337;29;20050;-91
2022/01/13 05:32:56;;;;;;;7.15;3.67;;;;;;;2.60;69.15;103328.63;4935459;29;20042;-90
2022/01/13 05:38:25;;;;;;;7.97;3.88;;;;;;;2.19;68.73;103288.16;4935575;29;20289;-90
2022/01/13 05:44:12;;;;;;;6.35;3.72;;;;;;;2.31;68.77;103334.28;4934818;29;20087;-90
2022/01/13 05:49:59;;;;;;;7.68;3.63;;;;;;;2.59;68.67;103372.28;4935334;29;20351;-88
2022/01/13 05:55:46;;;;;;;7.20;3.58;;;;;;;2.43;68.24;103352.28;4916500;29;20315;-88
2022/01/13 06:01:34;;;;;;;9.55;3.72;;;;;;;2.21;68.37;103308.97;4935255;29;20083;-88
2022/01/13 06:07:21;;;;;;;7.35;3.60;;;;;;;2.50;68.08;103366.88;4920111;29;20038;-90
2022/01/13 06:17:38;;;;;;;6.90;3.78;;;;;;;2.72;67.57;103356.72;4901357;29;20118;-92
2022/01/13 06:23:25;;;;;;;8.75;3.70;;;;;;;2.48;67.81;103360.59;4900932;29;20112;-91
2022/01/13 06:29:13;;;;;;;8.65;4.13;;;;;;;2.66;67.58;103377.47;4917771;29;20068;-94
2022/01/13 06:35:00;;;;;;;6.88;3.90;;;;;;;2.37;68.53;103377.28;4918206;29;20390;-91
2022/01/13 06:40:49;;;;;;;7.22;3.88;;;;;;;2.93;66.86;103426.53;4919475;29;20095;-89
2022/01/13 06:46:36;;;;;;;8.05;4.30;;;;;;;2.47;67.66;103404.22;4915705;29;20055;-94
2022/01/13 06:52:24;;;;;;;11.48;4.78;;;;;;;2.28;67.89;103358.00;4922356;29;20279;-90
2022/01/13 06:58:12;;;;;;;10.00;5.05;;;;;;;2.07;68.53;103363.91;4918328;29;20275;-92
2022/01/13 07:04:02;;;;;;;8.20;4.70;;;;;;;3.00;66.97;103439.47;4905529;29;20290;-91
2022/01/13 07:09:50;;;;;;;8.15;4.60;;;;;;;2.76;67.49;103413.13;4918775;29;20104;-87
2022/01/13 07:20:19;;;;;;;8.85;4.80;;;;;;;2.72;67.69;103408.31;4938140;29;20114;-92
2022/01/13 07:26:07;;;;;;;9.13;4.90;;;;;;;2.88;67.45;103435.34;4919838;29;20047;-91
2022/01/13 07:31:54;;;;;;;8.18;4.82;;;;;;;2.50;68.94;103435.56;4937064;29;20410;-93
2022/01/13 07:37:42;;;;;;;9.13;4.75;;;;;;;2.50;68.26;103404.63;4929036;29;20047;-93
2022/01/13 07:43:31;;;;;;;7.97;4.22;;;;;;;2.58;68.92;103432.31;4934205;29;20056;-93
2022/01/13 07:49:19;;;;;;;8.23;4.13;;;;;;;2.47;68.61;103417.13;4954255;29;20087;-91
2022/01/13 07:55:07;;;;;;;7.38;4.43;;;;;;;2.60;69.03;103447.31;4926572;29;20282;-94
2022/01/13 08:00:55;;;;;;;7.50;4.38;;;;;;;2.57;68.46;103415.94;4920515;29;20046;-94
2022/01/13 08:06:42;;;;;;;8.27;4.75;;;;;;;2.42;68.09;103389.09;4917117;29;20131;-94
2022/01/13 08:12:29;;;;;;;8.45;4.65;;;;;;;2.49;68.81;103428.56;4918229;29;20043;-91
2022/01/13 08:23:00;;;;;;;10.38;5.53;;;;;;;2.71;67.77;103424.50;4918111;29;20047;-94
2022/01/13 08:28:47;;;;;;;10.52;5.47;;;;;;;2.71;67.95;103425.47;4926878;29;20169;-93
2022/01/13 08:34:35;;;;;;;9.32;4.95;;;;;;;2.56;68.32;103408.94;4936214;29;20055;-92
2022/01/13 08:40:22;;;;;;;12.88;6.03;;;;;;;2.71;68.04;103402.22;4936838;29;20038;-94
2022/01/13 08:46:09;;;;;;;12.77;6.13;;;;;;;2.94;68.58;103437.78;4936621;29;20413;-93
2022/01/13 08:51:58;;;;;;;11.82;6.20;;;;;;;2.74;67.78;103391.38;4922059;29;20050;-93
2022/01/13 08:57:45;;;;;;;11.65;6.18;;;;;;;2.98;67.59;103383.22;4936296;29;20162;-93
2022/01/13 09:03:33;;;;;;;11.20;5.65;;;;;;;2.91;67.12;103383.19;4935515;29;20402;-92
2022/01/13 09:09:02;;;;;;;12.23;6.97;;;;;;;2.84;68.17;103402.16;4936072;29;19930;-91
2022/01/13 09:14:51;;;;;;;12.02;6.32;;;;;;;2.79;66.69;103318.03;4936344;29;20100;-94
2022/01/13 09:25:10;;;;;;;12.05;6.47;;;;;;;2.76;66.98;103326.31;4917082;29;20106;-90
2022/01/13 09:30:58;;;;;;;12.93;6.53;;;;;;;3.18;66.75;103365.09;4916965;29;20047;-93
2022/01/13 09:36:45;;;;;;;13.55;6.90;;;;;;;2.96;66.67;103330.47;4916960;29;20489;-94
2022/01/13 09:42:33;;;;;;;13.00;6.93;;;;;;;2.94;67.25;103343.22;4909181;29;20092;-92
2022/01/13 09:48:21;;;;;;;14.68;6.85;;;;;;;2.81;67.68;103317.50;4904979;29;20039;-92
2022/01/13 09:54:08;;;;;;;12.32;7.10;;;;;;;2.88;67.28;103288.25;4905597;29;20500;-94
2022/01/13 09:59:58;;;;;;;13.43;7.20;;;;;;;2.73;67.87;103263.06;4901008;29;20183;-94
2022/01/13 10:05:57;;;;;;;14.55;7.22;;;;;;;2.76;67.99;103279.88;4910514;29;20123;-92
2022/01/13 10:11:53;;;;;;;14.02;7.68;;;;;;;2.92;67.72;103305.97;4904786;29;20047;-93
2022/01/13 10:17:49;;;;;;;14.50;7.50;;;;;;;3.02;67.65;103308.03;4908606;29;20521;-92
2022/01/13 10:28:23;;;;;;;13.68;7.35;;;;;;;2.86;68.06;103284.53;4920036;29;20044;-91
2022/01/13 10:34:23;;;;;;;14.50;7.78;;;;;;;2.99;67.29;103267.25;4919753;29;20031;-88
2022/01/13 10:40:15;;;;;;;13.55;7.60;;;;;;;2.72;67.77;103222.53;4919475;29;20121;-90
2022/01/13 10:46:02;;;;;;;14.82;7.70;;;;;;;2.71;67.14;103190.66;4919639;29;20091;-91
2022/01/13 10:51:49;;;;;;;14.73;8.18;;;;;;;2.59;67.65;103195.19;4919572;29;20047;-92
2022/01/13 10:57:37;;;;;;;14.30;7.78;;;;;;;3.08;67.08;103251.06;4919582;29;20304;-93
2022/01/13 11:03:27;;;;;;;13.07;7.38;;;;;;;3.09;67.41;103240.94;4918424;29;20055;-83
2022/01/13 11:09:18;;;;;;;16.90;8.25;;;;;;;2.74;67.19;103179.78;4936495;29;20029;-84
2022/01/13 11:15:08;;;;;;;15.27;7.95;;;;;;;2.91;67.87;103218.94;4918193;29;20070;-85
2022/01/13 11:20:58;;;;;;;14.80;7.47;;;;;;;3.00;67.86;103225.22;4917919;29;20177;-85
2022/01/13 11:30:55;;;;;;;14.65;7.65;;;;;;;2.83;68.47;103199.91;4928190;29;20432;-87
2022/01/13 11:36:43;;;;;;;16.55;8.25;;;;;;;2.86;68.35;103181.31;4921381;29;20398;-86
2022/01/13 11:42:13;;;;;;;14.65;8.02;;;;;;;2.88;68.27;103186.63;4916776;29;19970;-89
2022/01/13 11:48:21;;;;;;;14.25;7.90;;;;;;;2.89;67.67;103140.38;4923123;29;20084;-85
2022/01/13 11:54:09;;;;;;;15.32;8.40;;;;;;;2.72;68.92;103169.28;4930672;29;20087;-93
2022/01/13 11:59:56;;;;;;;16.65;8.60;;;;;;;3.04;68.30;103188.72;4936507;29;20525;-90
2022/01/13 12:05:43;;;;;;;14.68;7.97;;;;;;;2.78;68.86;103174.28;4928495;29;20335;-88
2022/01/13 12:11:46;;;;;;;15.73;8.00;;;;;;;2.71;69.24;103193.25;4924475;29;20505;-87
2022/01/13 12:17:47;;;;;;;14.80;8.05;;;;;;;2.65;68.81;103143.47;4931649;29;20158;-90
2022/01/13 12:23:37;;;;;;;15.55;8.25;;;;;;;2.64;69.57;103180.28;4923662;29;20167;-90
2022/01/13 12:34:22;;;;;;;13.85;7.70;;;;;;;2.03;70.63;103135.78;4906191;29;20043;-90
2022/01/13 12:40:12;;;;;;;16.63;9.10;;;;;;;2.37;71.10;103193.22;4913077;29;20118;-87
2022/01/13 12:46:07;;;;;;;14.93;8.35;;;;;;;2.42;71.01;103198.25;4915712;29;20087;-87
2022/01/13 12:51:54;;;;;;;14.02;7.72;;;;;;;2.38;71.41;103197.69;4913992;29;20088;-88
2022/01/13 12:57:47;;;;;;;14.88;8.35;;;;;;;2.34;71.08;103183.47;4915909;29;20442;-89
2022/01/13 13:03:35;;;;;;;15.02;8.18;;;;;;;2.21;70.74;103147.47;4915621;29;20159;-91
2022/01/13 13:09:25;;;;;;;14.88;8.45;;;;;;;2.32;71.07;103177.19;4910918;29;20072;-90
2022/01/13 13:21:07;;;;;;;15.88;8.45;;;;;;;2.30;71.15;103191.53;4908169;29;20080;-90
2022/01/13 13:26:54;;;;;;;15.88;8.73;;;;;;;2.18;71.36;103162.59;4910894;29;20119;-91
2022/01/13 13:37:23;;;;;;;15.48;8.18;;;;;;;2.07;71.42;103138.75;4928516;29;20042;-92
2022/01/13 13:43:11;;;;;;;17.75;9.05;;;;;;;2.10;71.28;103134.91;4935282;29;20561;-92
2022/01/13 13:48:59;;;;;;;18.70;9.38;;;;;;;2.18;70.39;103139.38;4929792;29;20094;-92
2022/01/13 13:54:54;;;;;;;18.20;9.85;;;;;;;2.62;70.23;103174.00;4922243;29;20104;-95
2022/01/13 14:00:42;;;;;;;16.25;9.23;;;;;;;2.21;70.85;103116.53;4935117;29;20417;-91
2022/01/13 14:06:11;;;;;;;18.60;10.00;;;;;;;2.47;70.44;103141.16;4925501;29;19922;-93
2022/01/13 14:11:58;;;;;;;17.23;9.25;;;;;;;2.42;70.22;103135.44;4935930;29;20453;-94
2022/01/13 14:17:48;;;;;;;18.42;9.40;;;;;;;2.44;70.19;103127.16;4935217;29;20099;-93
2022/01/13 14:23:42;;;;;;;18.20;9.35;;;;;;;2.61;70.39;103164.44;4924174;29;20164;-93
2022/01/13 14:29:29;;;;;;;18.80;10.05;;;;;;;1.56;70.26;103006.13;5021174;23;20139;-96
2022/01/13 14:35:27;;;;;;;18.00;9.88;;;;;;;2.46;69.96;103140.25;4910974;29;20115;-91
2022/01/13 14:41:46;;;;;;;17.98;10.30;;;;;;;2.44;70.56;103167.50;4909222;29;20516;-92
2022/01/13 14:47:33;;;;;;;19.02;9.55;;;;;;;2.38;70.44;103171.88;4911709;29;20096;-91
2022/01/13 14:53:21;;;;;;;19.98;10.38;;;;;;;2.35;70.57;103144.06;4910472;29;20119;-90
2022/01/13 14:59:08;;;;;;;19.67;10.07;;;;;;;2.68;69.55;103185.09;4900272;29;20067;-88
2022/01/13 15:04:55;;;;;;;20.63;10.82;;;;;;;2.14;70.41;103103.63;4918080;29;20386;-90
2022/01/13 15:10:43;;;;;;;22.13;11.32;;;;;;;2.47;70.75;103190.16;4901858;29;20271;-90
2022/01/13 15:16:30;;;;;;;18.02;9.95;;;;;;;2.41;71.03;103183.53;4901495;29;20137;-90
2022/01/13 15:22:18;;;;;;;20.98;10.93;;;;;;;2.34;70.24;103142.22;4902800;29;20043;-87
2022/01/13 15:27:47;;;;;;;22.45;10.93;;;;;;;2.18;71.03;103148.75;4904776;29;20025;-91
2022/01/13 15:33:34;;;;;;;18.05;10.07;;;;;;;2.52;70.58;103202.91;4899354;29;20479;-90
2022/01/13 15:39:21;;;;;;;21.52;11.02;;;;;;;2.69;69.92;103191.19;4901629;29;20039;-90
2022/01/13 15:45:11;;;;;;;21.23;10.85;;;;;;;2.63;69.99;103207.75;4920496;29;20098;-93
2022/01/13 15:50:58;;;;;;;20.50;11.07;;;;;;;2.76;69.63;103197.31;4899416;29;20040;-87
2022/01/13 15:56:45;;;;;;;21.73;11.80;;;;;;;2.57;69.27;103157.97;4899388;29;20050;-89
2022/01/13 16:02:32;;;;;;;21.83;10.93;;;;;;;2.50;70.27;103169.91;4899003;29;20103;-89
2022/01/13 16:08:19;;;;;;;20.98;11.30;;;;;;;2.59;70.15;103161.66;4899358;29;20051;-91
2022/01/13 16:14:08;;;;;;;25.75;11.73;;;;;;;2.71;69.63;103197.44;4914658;29;20194;-90
2022/01/13 16:19:55;;;;;;;22.20;11.57;;;;;;;2.94;68.87;103193.50;4916812;29;20465;-90
2022/01/13 16:25:43;;;;;;;22.33;11.73;;;;;;;2.84;69.30;103201.75;4907035;29;20104;-90
2022/01/13 16:35:29;;;;;;;22.15;11.48;;;;;;;2.65;69.47;103167.59;4899681;29;20051;-88
2022/01/13 16:41:16;;;;;;;22.00;11.38;;;;;;;2.34;70.05;103152.53;4917118;29;20087;-94
2022/01/13 16:47:06;;;;;;;22.95;11.80;;;;;;;2.85;69.26;103195.84;4912471;29;20296;-88
2022/01/13 16:52:54;;;;;;;22.95;11.38;;;;;;;2.47;70.74;103162.72;4914682;29;20103;-90
2022/01/13 16:58:44;;;;;;;20.65;10.98;;;;;;;2.85;69.89;103163.97;4917055;29;20043;-88
2022/01/13 17:04:31;;;;;;;22.25;11.85;;;;;;;2.40;70.08;103105.97;4916847;29;20043;-90
2022/01/13 17:10:28;;;;;;;21.90;11.60;;;;;;;2.51;70.54;103156.28;4915225;29;20050;-85
2022/01/13 17:16:20;;;;;;;21.27;11.30;;;;;;;2.65;70.03;103146.03;4913298;29;20529;-91
2022/01/13 17:22:10;;;;;;;21.25;10.98;;;;;;;2.43;70.42;103132.13;4916508;29;20123;-91
2022/01/13 17:27:58;;;;;;;20.27;11.07;;;;;;;2.91;69.19;103141.50;4908107;29;20123;-88
2022/01/13 17:37:59;;;;;;;23.25;12.05;;;;;;;2.50;70.26;103102.84;4898020;29;20044;-91
2022/01/13 17:43:48;;;;;;;21.08;11.20;;;;;;;2.45;70.71;103122.91;4920969;29;20039;-87
2022/01/13 17:49:35;;;;;;;22.27;12.35;;;;;;;2.71;70.33;103128.75;4906675;29;20035;-86
2022/01/13 17:55:23;;;;;;;24.75;13.50;;;;;;;2.70;69.82;103116.56;4898474;29;20402;-84
2022/01/13 18:01:10;;;;;;;25.20;13.90;;;;;;;2.72;69.61;103102.19;4900775;29;20312;-86
2022/01/13 18:06:58;;;;;;;26.38;13.80;;;;;;;2.63;69.35;103077.84;4913123;29;20822;-87
2022/01/13 18:12:49;;;;;;;25.45;13.10;;;;;;;2.51;69.85;103051.47;4916560;29;20051;-89
2022/01/13 18:18:36;;;;;;;26.08;13.35;;;;;;;2.51;69.81;103040.22;4914372;29;20046;-93
2022/01/13 18:24:23;;;;;;;25.45;13.07;;;;;;;2.49;69.99;103054.59;4902146;29;20035;-93
2022/01/13 18:30:12;;;;;;;23.92;12.95;;;;;;;2.64;69.79;103070.28;4902130;29;20107;-91
2022/01/13 18:35:43;;;;;;;26.20;13.57;;;;;;;2.13;69.67;102953.94;4914731;29;19922;-91
2022/01/13 18:41:30;;;;;;;25.38;13.77;;;;;;;2.57;70.00;103044.47;4920471;29;20043;-92
2022/01/13 18:47:17;;;;;;;25.38;12.77;;;;;;;2.36;69.92;102995.44;4901660;29;20040;-94
2022/01/13 18:53:06;;;;;;;23.80;12.63;;;;;;;2.57;68.71;102977.41;4917281;29;20039;-91
2022/01/13 18:58:54;;;;;;;25.10;13.63;;;;;;;2.56;68.65;102984.97;4914374;29;20087;-91
2022/01/13 19:04:41;;;;;;;22.55;12.43;;;;;;;2.33;69.55;102977.94;4908031;29;20063;-94
2022/01/13 19:10:29;;;;;;;22.55;12.68;;;;;;;2.55;69.89;103060.50;4925986;29;20043;-94
2022/01/13 19:16:19;;;;;;;23.42;13.13;;;;;;;2.29;69.71;103001.50;4913657;29;20095;-94
2022/01/13 19:22:07;;;;;;;25.05;13.10;;;;;;;2.68;69.46;103056.09;4915122;29;20038;-91
2022/01/13 19:27:55;;;;;;;24.10;14.10;;;;;;;2.55;69.71;103024.41;4919514;29;20068;-92
2022/01/13 19:33:45;;;;;;;27.33;13.60;;;;;;;2.61;68.62;103022.56;4919738;29;20055;-90
2022/01/13 19:39:33;;;;;;;25.33;13.30;;;;;;;2.56;68.49;102998.81;4918155;29;20043;-87
2022/01/13 19:45:20;;;;;;;24.25;13.40;;;;;;;2.58;69.83;103046.34;4918091;29;20042;-89
2022/01/13 19:51:08;;;;;;;24.75;13.27;;;;;;;2.94;68.19;103066.09;4915652;29;20274;-88
2022/01/13 19:56:55;;;;;;;24.30;13.23;;;;;;;2.81;68.62;103046.53;4899176;29;20047;-90
2022/01/13 20:02:43;;;;;;;26.52;13.50;;;;;;;2.81;68.52;103031.06;4910302;29;20287;-87
2022/01/13 20:08:31;;;;;;;26.70;13.80;;;;;;;2.67;69.06;103022.38;4900363;29;20047;-90
2022/01/13 20:14:18;;;;;;;26.77;14.27;;;;;;;2.37;68.66;102950.84;4915597;29;20100;-89
2022/01/13 20:20:06;;;;;;;27.85;14.20;;;;;;;2.50;69.32;102986.78;4917224;29;20095;-93
2022/01/13 20:25:35;;;;;;;26.55;14.15;;;;;;;2.60;68.95;102990.72;4918285;29;19914;-91
2022/01/13 20:31:22;;;;;;;26.48;14.10;;;;;;;2.40;69.03;102941.84;4900485;29;20030;-91
2022/01/13 20:37:09;;;;;;;26.75;14.10;;;;;;;2.65;69.10;103004.16;4897634;29;20517;-89
2022/01/13 20:42:56;;;;;;;23.85;13.20;;;;;;;2.71;68.87;103010.06;4917790;29;20074;-91
2022/01/13 20:48:44;;;;;;;24.48;13.85;;;;;;;2.50;68.81;102979.06;4907263;29;20328;-92
2022/01/13 20:54:31;;;;;;;26.90;14.00;;;;;;;2.83;68.28;102990.88;4906313;29;20103;-92
2022/01/13 21:00:19;;;;;;;27.35;14.52;;;;;;;2.53;68.85;102962.31;4905693;29;20091;-92
2022/01/13 21:06:06;;;;;;;27.67;14.35;;;;;;;2.66;68.84;102982.75;4918301;29;20169;-92
2022/01/13 21:11:53;;;;;;;24.67;13.57;;;;;;;2.30;69.40;102959.50;4912752;29;20120;-91
2022/01/13 21:17:41;;;;;;;23.90;12.88;;;;;;;2.37;69.25;102954.38;4917848;29;20298;-93
2022/01/13 21:23:29;;;;;;;24.63;12.65;;;;;;;2.47;69.39;102963.22;4916649;29;20034;-89
2022/01/13 21:29:16;;;;;;;24.35;12.43;;;;;;;2.48;69.43;102960.84;4917110;29;20047;-90
2022/01/13 21:35:04;;;;;;;23.63;12.95;;;;;;;2.53;69.17;102969.13;4916598;29;20135;-94
2022/01/13 21:40:51;;;;;;;25.98;14.10;;;;;;;2.65;67.94;102932.84;4916548;29;20030;-87
2022/01/13 21:46:38;;;;;;;26.63;13.38;;;;;;;2.60;69.30;102958.81;4904197;29;20565;-93
2022/01/13 21:52:26;;;;;;;23.20;12.32;;;;;;;2.81;67.68;102955.31;4900007;29;20056;-92
2022/01/13 21:58:13;;;;;;;22.75;12.32;;;;;;;2.32;68.82;102896.16;4897763;29;20101;-94
2022/01/13 22:04:00;;;;;;;23.17;12.88;;;;;;;2.51;68.74;102925.09;4906364;29;20055;-93
2022/01/13 22:09:51;;;;;;;22.98;12.80;;;;;;;2.38;68.81;102884.00;4916438;29;20418;-92
2022/01/13 22:15:38;;;;;;;23.33;12.25;;;;;;;2.29;68.86;102843.31;4916001;29;20405;-91
2022/01/13 22:21:27;;;;;;;24.35;12.50;;;;;;;2.53;68.66;102869.44;4917213;29;20043;-91
2022/01/13 22:27:14;;;;;;;22.65;11.70;;;;;;;2.42;69.10;102856.94;4925417;29;20052;-91
2022/01/13 22:33:02;;;;;;;23.60;12.82;;;;;;;2.04;69.23;102810.34;4917218;29;20099;-93
2022/01/13 22:42:38;;;;;;;20.20;11.63;;;;;;;2.49;69.26;102866.34;4897739;29;20241;-92
2022/01/13 22:48:26;;;;;;;21.08;11.88;;;;;;;2.38;69.96;102863.38;4912211;29;20509;-92
2022/01/13 22:54:13;;;;;;;22.75;12.07;;;;;;;2.13;69.64;102822.50;4920172;29;20110;-93
2022/01/13 23:00:06;;;;;;;22.27;12.02;;;;;;;2.35;69.61;102851.75;4919317;29;20084;-91
2022/01/13 23:05:54;;;;;;;26.27;12.52;;;;;;;2.34;69.68;102842.19;4919501;29;20537;-91
2022/01/13 23:11:42;;;;;;;20.00;11.43;;;;;;;2.37;68.94;102821.94;4919517;29;20123;-90
2022/01/13 23:23:34;;;;;;;21.40;11.77;;;;;;;2.40;69.41;102830.97;4919306;29;20076;-91
2022/01/13 23:29:21;;;;;;;22.17;11.73;;;;;;;2.01;69.21;102755.88;4906623;29;20299;-93
2022/01/13 23:35:09;;;;;;;21.35;12.15;;;;;;;2.20;68.70;102742.56;4918778;29;20043;-93
2022/01/13 23:45:14;;;;;;;20.33;11.45;;;;;;;2.16;68.77;102750.69;4917954;29;20505;-90
2022/01/13 23:51:02;;;;;;;23.67;12.60;;;;;;;2.55;68.42;102792.28;4917746;29;20537;-90
2022/01/13 23:56:50;;;;;;;20.92;12.43;;;;;;;2.70;67.90;102796.66;4917684;29;20043;-91
